createdAt,value
2024-02-06T00:00:17.625Z,101375.66
2024-02-06T00:02:48.315Z,101376.97
2024-02-06T00:05:19.297Z,101380.94
2024-02-06T00:07:50.070Z,101389.69
2024-02-06T00:10:22.633Z,101368.47
2024-02-06T00:12:54.423Z,101388.59
2024-02-06T00:15:24.925Z,101384.88
2024-02-06T00:17:55.573Z,101386.19
2024-02-06T00:20:26.415Z,101390.81
2024-02-06T00:22:57.083Z,101393.78
2024-02-06T00:25:27.855Z,101389.16
2024-02-06T00:27:58.532Z,101400.44
2024-02-06T00:30:29.112Z,101403.81
2024-02-06T00:32:59.938Z,101411.50
2024-02-06T00:35:32.158Z,101415.50
2024-02-06T00:38:02.990Z,101423.22
2024-02-06T00:40:33.714Z,101426.78
2024-02-06T00:43:04.932Z,101423.06
2024-02-06T00:45:35.800Z,101425.78
2024-02-06T00:48:06.864Z,101426.03
2024-02-06T00:50:39.245Z,101454.31
2024-02-06T00:53:10.189Z,101444.75
2024-02-06T00:55:41.265Z,101448.13
2024-02-06T00:58:11.960Z,101445.41
2024-02-06T01:00:43.771Z,101451.84
2024-02-06T01:03:14.575Z,101459.56
2024-02-06T01:05:45.226Z,101445.16
2024-02-06T01:08:16.288Z,101464.75
2024-02-06T01:10:47.097Z,101474.34
2024-02-06T01:13:18.063Z,101472.72
2024-02-06T01:15:49.185Z,101462.28
2024-02-06T01:18:19.915Z,101470.88
2024-02-06T01:20:50.581Z,101472.28
2024-02-06T01:23:20.999Z,101492.75
2024-02-06T01:25:51.917Z,101489.03
2024-02-06T01:28:22.622Z,101486.53
2024-02-06T01:30:53.339Z,101486.53
2024-02-06T01:33:24.208Z,101499.06
2024-02-06T01:35:55.266Z,101497.00
2024-02-06T01:38:26.239Z,101500.72
2024-02-06T01:40:57.124Z,101505.38
2024-02-06T01:43:27.868Z,101504.31
2024-02-06T01:45:58.730Z,101508.69
2024-02-06T01:48:30.304Z,101504.72
2024-02-06T01:51:01.310Z,101500.09
2024-02-06T01:53:33.560Z,101508.25
2024-02-06T01:56:05.388Z,101499.47
2024-02-06T01:58:37.129Z,101510.78
2024-02-06T02:01:09.631Z,101517.44
2024-02-06T02:03:40.392Z,101527.47
2024-02-06T02:06:11.239Z,101525.25
2024-02-06T02:08:42.495Z,101514.59
2024-02-06T02:11:13.361Z,101522.13
2024-02-06T02:13:44.466Z,101515.06
2024-02-06T02:16:18.073Z,101509.00
2024-02-06T02:18:48.839Z,101490.00
2024-02-06T02:21:19.486Z,101511.56
2024-02-06T02:23:51.408Z,101506.78
2024-02-06T02:26:23.506Z,101507.22
2024-02-06T02:28:55.734Z,101505.97
2024-02-06T02:31:27.899Z,101507.00
2024-02-06T02:33:58.578Z,101518.88
2024-02-06T02:36:29.339Z,101515.13
2024-02-06T02:39:00.070Z,101519.09
2024-02-06T02:41:31.057Z,101510.34
2024-02-06T02:44:01.738Z,101493.25
2024-02-06T02:46:32.459Z,101518.34
2024-02-06T02:49:03.344Z,101506.88
2024-02-06T02:51:35.195Z,101513.56
2024-02-06T02:54:05.844Z,101498.16
2024-02-06T02:56:36.363Z,101502.34
2024-02-06T02:59:07.463Z,101509.41
2024-02-06T03:01:38.699Z,101484.13
2024-02-06T03:04:09.537Z,101489.00
2024-02-06T03:06:40.462Z,101486.31
2024-02-06T03:09:11.136Z,101487.78
2024-02-06T03:11:42.087Z,101484.47
2024-02-06T03:14:13.454Z,101478.03
2024-02-06T03:16:44.264Z,101479.91
2024-02-06T03:19:15.148Z,101480.34
2024-02-06T03:21:46.172Z,101469.09
2024-02-06T03:24:17.040Z,101461.19
2024-02-06T03:26:48.072Z,101470.38
2024-02-06T03:29:19.256Z,101466.84
2024-02-06T03:31:50.954Z,101464.53
2024-02-06T03:34:23.398Z,101454.13
2024-02-06T03:36:55.692Z,101455.78
2024-02-06T03:39:27.262Z,101450.78
2024-02-06T03:41:58.215Z,101447.47
2024-02-06T03:44:29.498Z,101441.63
2024-02-06T03:47:00.331Z,101447.69
2024-02-06T03:49:31.046Z,101440.19
2024-02-06T03:52:01.937Z,101435.00
2024-02-06T03:54:32.871Z,101427.72
2024-02-06T03:57:03.702Z,101428.34
2024-02-06T03:59:34.144Z,101421.69
2024-02-06T04:02:06.242Z,101420.84
2024-02-06T04:04:37.133Z,101419.22
2024-02-06T04:07:08.424Z,101414.19
2024-02-06T04:09:39.154Z,101407.31
2024-02-06T04:12:10.094Z,101397.50
2024-02-06T04:14:42.750Z,101395.22
2024-02-06T04:17:13.763Z,101383.34
2024-02-06T04:19:44.729Z,101359.19
2024-02-06T04:22:15.476Z,101373.94
2024-02-06T04:24:46.055Z,101333.75
2024-02-06T04:27:16.819Z,101349.78
2024-02-06T04:29:47.318Z,101362.03
2024-02-06T04:32:18.341Z,101358.72
2024-02-06T04:34:49.330Z,101345.78
2024-02-06T04:37:21.644Z,101328.91
2024-02-06T04:39:52.398Z,101331.16
2024-02-06T04:42:22.931Z,101329.72
2024-02-06T04:44:53.626Z,101314.91
2024-02-06T04:47:24.335Z,101319.03
2024-02-06T04:49:55.084Z,101301.09
2024-02-06T04:52:26.269Z,101303.38
2024-02-06T04:54:57.026Z,101291.50
2024-02-06T04:57:27.992Z,101294.38
2024-02-06T05:00:00.316Z,101286.69
2024-02-06T05:02:32.497Z,101279.34
2024-02-06T05:05:03.306Z,101283.09
2024-02-06T05:07:34.932Z,101271.41
2024-02-06T05:10:05.973Z,101263.47
2024-02-06T05:12:37.032Z,101257.72
2024-02-06T05:15:08.125Z,101241.13
2024-02-06T05:17:39.226Z,101248.66
2024-02-06T05:20:12.078Z,101246.41
2024-02-06T05:22:43.123Z,101245.41
2024-02-06T05:25:14.397Z,101229.59
2024-02-06T05:27:45.272Z,101229.38
2024-02-06T05:30:16.502Z,101223.78
2024-02-06T05:32:47.240Z,101217.13
2024-02-06T05:35:18.055Z,101217.31
2024-02-06T05:37:49.342Z,101213.38
2024-02-06T05:40:20.241Z,101206.06
2024-02-06T05:42:51.143Z,101198.78
2024-02-06T05:45:21.884Z,101192.94
2024-02-06T05:47:53.332Z,101171.72
2024-02-06T05:50:25.400Z,101172.97
2024-02-06T05:52:56.805Z,101147.59
2024-02-06T05:55:31.241Z,101169.22
2024-02-06T05:58:02.141Z,101163.38
2024-02-06T06:00:33.850Z,101144.22
2024-02-06T06:03:05.253Z,101097.19
2024-02-06T06:05:36.268Z,101145.28
2024-02-06T06:08:07.549Z,101133.84
2024-02-06T06:10:38.422Z,101132.78
2024-02-06T06:13:09.438Z,101117.63
2024-02-06T06:15:41.674Z,101115.53
2024-02-06T06:18:13.743Z,101098.47
2024-02-06T06:20:44.825Z,101108.88
2024-02-06T06:23:16.088Z,101099.09
2024-02-06T06:25:47.067Z,101088.69
2024-02-06T06:28:17.842Z,101091.84
2024-02-06T06:30:48.807Z,101073.31
2024-02-06T06:33:20.840Z,101072.28
2024-02-06T06:35:51.741Z,101061.25
2024-02-06T06:38:22.390Z,101049.78
2024-02-06T06:40:53.107Z,101053.78
2024-02-06T06:43:24.965Z,101051.88
2024-02-06T06:45:56.773Z,101042.31
2024-02-06T06:48:27.483Z,101032.53
2024-02-06T06:50:58.297Z,101033.19
2024-02-06T06:53:29.244Z,101031.72
2024-02-06T06:55:59.972Z,101026.09
2024-02-06T06:58:31.345Z,101009.63
2024-02-06T07:01:02.811Z,101007.81
2024-02-06T07:03:34.623Z,101002.19
2024-02-06T07:06:06.508Z,100997.00
2024-02-06T07:08:37.898Z,100990.75
2024-02-06T07:11:09.272Z,100992.59
2024-02-06T07:13:42.070Z,100984.28
2024-02-06T07:16:12.837Z,100981.97
2024-02-06T07:18:43.376Z,100983.63
2024-02-06T07:21:14.177Z,100961.78
2024-02-06T07:23:44.986Z,100893.22
2024-02-06T07:26:15.589Z,100948.69
2024-02-06T07:28:46.237Z,100955.94
2024-02-06T07:31:17.205Z,100936.63
2024-02-06T07:33:48.104Z,100938.47
2024-02-06T07:36:19.030Z,100919.97
2024-02-06T07:38:49.621Z,100911.66
2024-02-06T07:41:20.093Z,100925.97
2024-02-06T07:43:51.183Z,100923.47
2024-02-06T07:46:22.023Z,100924.47
2024-02-06T07:48:56.570Z,100920.75
2024-02-06T07:51:27.960Z,100917.03
2024-02-06T07:54:01.696Z,100930.13
2024-02-06T07:56:33.883Z,100928.63
2024-02-06T07:59:04.673Z,100928.81
2024-02-06T08:01:36.105Z,100922.59
2024-02-06T08:04:09.495Z,100931.97
2024-02-06T08:06:40.285Z,100904.50
2024-02-06T08:09:11.159Z,100926.72
2024-02-06T08:11:41.889Z,100926.97
2024-02-06T08:14:16.705Z,100922.75
2024-02-06T08:16:49.335Z,100914.47
2024-02-06T08:19:20.484Z,100925.66
2024-02-06T08:21:51.662Z,100921.47
2024-02-06T08:24:22.398Z,100908.53
2024-02-06T08:26:52.840Z,100912.25
2024-02-06T08:29:23.758Z,100908.69
2024-02-06T08:31:54.287Z,100918.69
2024-02-06T08:34:25.037Z,100928.25
2024-02-06T08:36:55.787Z,100918.44
2024-02-06T08:39:29.383Z,100917.16
2024-02-06T08:42:00.218Z,100923.41
2024-02-06T08:44:32.763Z,100930.06
2024-02-06T08:47:04.026Z,100909.25
2024-02-06T08:49:35.703Z,100926.63
2024-02-06T08:52:06.449Z,100927.28
2024-02-06T08:54:37.233Z,100922.09
2024-02-06T08:57:08.157Z,100925.09
2024-02-06T08:59:39.030Z,100919.25
2024-02-06T09:02:10.815Z,100925.13
2024-02-06T09:04:42.270Z,100923.94
2024-02-06T09:07:13.230Z,100929.22
2024-02-06T09:09:43.935Z,100929.97
2024-02-06T09:12:15.117Z,100929.06
2024-02-06T09:14:45.874Z,100941.84
2024-02-06T09:17:16.696Z,100939.75
2024-02-06T09:19:47.502Z,100945.94
2024-02-06T09:22:18.428Z,100941.72
2024-02-06T09:24:49.359Z,100894.38
2024-02-06T09:27:23.119Z,100945.28
2024-02-06T09:29:54.103Z,100944.38
2024-02-06T09:32:24.762Z,100942.84
2024-02-06T09:34:58.227Z,100951.25
2024-02-06T09:37:32.282Z,100947.38
2024-02-06T09:40:02.683Z,100962.13
2024-02-06T09:42:33.876Z,100958.38
2024-02-06T09:45:04.782Z,100967.31
2024-02-06T09:47:35.400Z,100971.34
2024-02-06T09:50:06.708Z,100974.28
2024-02-06T09:52:38.963Z,100981.94
2024-02-06T09:55:16.704Z,100990.97
2024-02-06T09:57:50.467Z,100992.34
2024-02-06T10:00:25.145Z,100992.25
2024-02-06T10:03:01.561Z,101001.72
2024-02-06T10:05:36.500Z,100940.53
2024-02-06T10:08:08.072Z,100992.97
2024-02-06T10:10:39.129Z,101013.75
2024-02-06T10:13:10.173Z,101015.44
2024-02-06T10:15:41.120Z,101013.06
2024-02-06T10:18:11.725Z,101010.47
2024-02-06T10:20:50.106Z,100948.78
2024-02-06T10:23:22.056Z,101010.81
2024-02-06T10:25:53.010Z,101013.75
2024-02-06T10:28:26.906Z,101016.63
2024-02-06T10:30:59.162Z,101021.59
2024-02-06T10:33:31.416Z,101010.72
2024-02-06T10:36:05.896Z,101013.56
2024-02-06T10:38:36.527Z,101023.50
2024-02-06T10:41:20.224Z,101022.44
2024-02-06T10:43:55.898Z,101024.09
2024-02-06T10:46:26.744Z,101032.03
2024-02-06T10:49:06.816Z,101037.69
2024-02-06T10:51:37.808Z,101037.22
2024-02-06T10:54:08.582Z,101041.00
2024-02-06T10:56:41.837Z,100958.13
2024-02-06T10:59:18.316Z,101048.09
2024-02-06T11:01:49.865Z,101051.63
2024-02-06T11:04:25.717Z,101043.81
2024-02-06T11:07:07.859Z,101057.94
2024-02-06T11:09:42.728Z,101057.34
2024-02-06T11:12:26.688Z,101060.66
2024-02-06T11:15:10.746Z,101054.69
2024-02-06T11:17:43.786Z,101015.16
2024-02-06T11:20:16.917Z,101073.66
2024-02-06T11:22:54.233Z,101021.53
2024-02-06T11:25:30.000Z,101081.06
2024-02-06T11:28:05.574Z,101092.91
2024-02-06T11:30:37.224Z,101104.03
2024-02-06T11:33:11.713Z,101110.97
2024-02-06T11:35:45.845Z,101116.41
2024-02-06T11:38:29.318Z,101120.69
2024-02-06T11:41:19.648Z,101103.94
2024-02-06T11:43:53.432Z,101123.63
2024-02-06T11:46:25.453Z,101126.13
2024-02-06T11:49:07.063Z,101126.59
2024-02-06T11:51:38.946Z,101132.69
2024-02-06T11:54:14.297Z,101133.78
2024-02-06T11:56:45.086Z,101138.97
2024-02-06T11:59:16.895Z,101144.88
2024-02-06T12:01:47.695Z,101146.41
2024-02-06T12:04:26.010Z,101134.06
2024-02-06T12:07:09.604Z,101166.94
2024-02-06T12:09:44.285Z,101170.25
2024-02-06T12:12:17.476Z,101160.28
2024-02-06T12:14:48.638Z,101182.69
2024-02-06T12:17:19.550Z,101183.41
2024-02-06T12:19:52.174Z,101185.00
2024-02-06T12:22:23.533Z,101177.13
2024-02-06T12:25:02.374Z,101191.53
2024-02-06T12:27:33.677Z,101189.72
2024-02-06T12:30:04.593Z,101192.53
2024-02-06T12:32:35.747Z,101206.31
2024-02-06T12:35:07.894Z,101210.31
2024-02-06T12:37:38.740Z,101214.53
2024-02-06T12:40:10.015Z,101222.50
2024-02-06T12:42:40.712Z,101228.75
2024-02-06T12:45:11.925Z,101230.84
2024-02-06T12:47:43.770Z,101227.97
2024-02-06T12:50:14.416Z,101237.06
2024-02-06T12:52:45.675Z,101232.19
2024-02-06T12:55:16.761Z,101225.97
2024-02-06T12:57:55.473Z,101249.31
2024-02-06T13:00:27.212Z,101257.25
2024-02-06T13:03:09.715Z,101233.69
2024-02-06T13:05:40.542Z,101268.75
2024-02-06T13:08:15.165Z,101214.34
2024-02-06T13:10:46.847Z,101269.41
2024-02-06T13:13:22.474Z,101278.06
2024-02-06T13:15:53.682Z,101281.28
2024-02-06T13:18:24.531Z,101292.66
2024-02-06T13:21:05.955Z,101293.97
2024-02-06T13:23:38.706Z,101295.28
2024-02-06T13:26:09.624Z,101285.31
2024-02-06T13:28:40.378Z,101291.56
2024-02-06T13:31:16.490Z,101283.28
2024-02-06T13:33:49.409Z,101294.53
2024-02-06T13:36:20.591Z,101292.06
2024-02-06T13:38:52.026Z,101288.75
2024-02-06T13:41:22.878Z,101282.09
2024-02-06T13:43:55.901Z,101298.75
2024-02-06T13:46:26.762Z,101292.06
2024-02-06T13:48:57.440Z,101295.00
2024-02-06T13:51:28.376Z,101292.50
2024-02-06T13:53:59.046Z,101301.22
2024-02-06T13:56:29.741Z,101279.94
2024-02-06T13:59:00.230Z,101294.94
2024-02-06T14:01:31.325Z,101283.25
2024-02-06T14:04:06.702Z,101295.72
2024-02-06T14:06:37.648Z,101291.97
2024-02-06T14:09:10.145Z,101291.13
2024-02-06T14:11:43.524Z,101256.03
2024-02-06T14:14:14.450Z,101301.50
2024-02-06T14:16:45.240Z,101304.38
2024-02-06T14:19:16.102Z,101312.25
2024-02-06T14:21:48.679Z,101313.69
2024-02-06T14:24:19.323Z,101308.84
2024-02-06T14:26:49.883Z,101321.13
2024-02-06T14:29:20.531Z,101310.03
2024-02-06T14:31:51.404Z,101316.28
2024-02-06T14:34:22.295Z,101309.81
2024-02-06T14:36:53.779Z,101314.19
2024-02-06T14:39:24.485Z,101310.66
2024-02-06T14:41:55.516Z,101307.94
2024-02-06T14:44:36.765Z,101304.94
2024-02-06T14:47:15.563Z,101333.69
2024-02-06T14:49:46.322Z,101331.19
2024-02-06T14:52:17.434Z,101334.91
2024-02-06T14:54:48.253Z,101320.72
2024-02-06T14:57:19.213Z,101337.38
2024-02-06T14:59:50.306Z,101338.00
2024-02-06T15:02:21.116Z,101344.50
2024-02-06T15:04:52.304Z,101334.13
2024-02-06T15:07:23.875Z,101342.88
2024-02-06T15:09:57.600Z,101343.31
2024-02-06T15:12:28.980Z,101334.34
2024-02-06T15:15:00.130Z,101338.13
2024-02-06T15:17:31.346Z,101329.59
2024-02-06T15:20:02.343Z,101320.22
2024-02-06T15:22:33.305Z,101329.19
2024-02-06T15:25:04.254Z,101325.47
2024-02-06T15:27:35.173Z,101317.53
2024-02-06T15:30:06.207Z,101324.63
2024-02-06T15:32:37.085Z,101326.47
2024-02-06T15:35:08.369Z,101324.19
2024-02-06T15:37:39.351Z,101327.94
2024-02-06T15:40:11.120Z,101335.41
2024-02-06T15:42:42.063Z,101319.34
2024-02-06T15:45:12.896Z,101333.75
2024-02-06T15:47:44.844Z,101322.22
2024-02-06T15:50:17.173Z,101319.09
2024-02-06T15:52:48.587Z,101320.78
2024-02-06T15:55:25.335Z,101330.34
2024-02-06T15:57:56.269Z,101333.28
2024-02-06T16:00:26.874Z,101319.16
2024-02-06T16:02:59.635Z,101325.41
2024-02-06T16:05:30.557Z,101317.28
2024-02-06T16:08:01.522Z,101307.31
2024-02-06T16:10:32.894Z,101304.19
2024-02-06T16:13:04.428Z,101305.34
2024-02-06T16:15:35.207Z,101304.91
2024-02-06T16:18:06.372Z,101305.75
2024-02-06T16:20:37.101Z,101300.75
2024-02-06T16:23:09.264Z,101297.03
2024-02-06T16:25:40.140Z,101292.00
2024-02-06T16:28:10.876Z,101294.09
2024-02-06T16:30:41.616Z,101289.09
2024-02-06T16:33:12.415Z,101289.00
2024-02-06T16:35:43.334Z,101277.75
2024-02-06T16:38:14.324Z,101288.16
2024-02-06T16:40:45.257Z,101265.25
2024-02-06T16:43:15.953Z,101270.25
2024-02-06T16:45:47.944Z,101268.34
2024-02-06T16:48:19.710Z,101259.00
2024-02-06T16:50:50.641Z,101251.06
2024-02-06T16:53:21.171Z,101256.03
2024-02-06T16:55:51.742Z,101239.19
2024-02-06T16:58:22.703Z,101215.19
2024-02-06T17:00:53.058Z,101247.47
2024-02-06T17:03:23.850Z,101240.56
2024-02-06T17:05:54.454Z,101222.72
2024-02-06T17:08:25.242Z,101239.56
2024-02-06T17:10:56.078Z,101229.75
2024-02-06T17:13:27.551Z,101228.50
2024-02-06T17:15:58.244Z,101236.38
2024-02-06T17:18:31.510Z,101230.16
2024-02-06T17:21:02.429Z,101219.75
2024-02-06T17:23:33.423Z,101218.09
2024-02-06T17:26:04.801Z,101213.09
2024-02-06T17:28:35.704Z,101210.97
2024-02-06T17:31:06.151Z,101209.13
2024-02-06T17:33:36.960Z,101205.16
2024-02-06T17:36:08.055Z,101207.22
2024-02-06T17:38:40.336Z,101174.44
2024-02-06T17:41:13.604Z,101212.31
2024-02-06T17:43:44.551Z,101212.50
2024-02-06T17:46:15.372Z,101217.47
2024-02-06T17:48:46.167Z,101218.91
2024-02-06T17:51:16.824Z,101219.66
2024-02-06T17:53:47.503Z,101217.72
2024-02-06T17:56:18.572Z,101219.44
2024-02-06T17:58:49.626Z,101209.78
2024-02-06T18:01:20.373Z,101208.78
2024-02-06T18:03:51.174Z,101209.34
2024-02-06T18:06:21.887Z,101197.91
2024-02-06T18:08:53.222Z,101198.56
2024-02-06T18:11:23.735Z,101204.78
2024-02-06T18:13:54.736Z,101201.81
2024-02-06T18:16:25.573Z,101159.41
2024-02-06T18:18:56.070Z,101208.00
2024-02-06T18:21:35.697Z,101206.34
2024-02-06T18:24:06.677Z,101217.13
2024-02-06T18:26:40.177Z,101210.41
2024-02-06T18:29:11.217Z,101209.41
2024-02-06T18:31:41.979Z,101193.75
2024-02-06T18:34:12.936Z,101202.31
2024-02-06T18:36:43.721Z,101202.31
2024-02-06T18:39:14.401Z,101230.66
2024-02-06T18:41:45.303Z,101228.97
2024-02-06T18:44:16.448Z,101237.88
2024-02-06T18:46:47.465Z,101232.19
2024-02-06T18:49:18.921Z,101238.44
2024-02-06T18:51:49.853Z,101216.34
2024-02-06T18:54:20.786Z,101222.19
2024-02-06T18:56:51.413Z,101217.63
2024-02-06T18:59:22.439Z,101208.72
2024-02-06T19:01:53.273Z,101210.13
2024-02-06T19:04:24.315Z,101201.84
2024-02-06T19:06:59.464Z,101203.63
2024-02-06T19:09:30.230Z,101202.81
2024-02-06T19:12:01.281Z,101186.66
2024-02-06T19:14:34.498Z,101188.69
2024-02-06T19:17:04.655Z,101183.34
2024-02-06T19:19:35.198Z,101172.53
2024-02-06T19:22:06.150Z,101171.97
2024-02-06T19:24:36.833Z,101171.09
2024-02-06T19:27:08.122Z,101165.72
2024-02-06T19:29:38.875Z,101171.47
2024-02-06T19:32:09.806Z,101166.47
2024-02-06T19:34:40.526Z,101162.50
2024-02-06T19:37:11.770Z,101168.53
2024-02-06T19:39:42.528Z,101156.75
2024-02-06T19:42:13.152Z,101175.97
2024-02-06T19:44:44.039Z,101180.06
2024-02-06T19:47:14.805Z,101176.38
2024-02-06T19:49:45.662Z,101179.41
2024-02-06T19:52:18.164Z,101175.28
2024-02-06T19:54:48.931Z,101165.69
2024-02-06T19:57:19.870Z,101160.31
2024-02-06T19:59:51.359Z,101154.28
2024-02-06T20:02:22.490Z,101155.47
2024-02-06T20:04:53.397Z,101150.94
2024-02-06T20:07:24.127Z,101155.03
2024-02-06T20:09:55.017Z,101148.34
2024-02-06T20:12:25.655Z,101147.56
2024-02-06T20:14:57.788Z,101144.66
2024-02-06T20:17:28.455Z,101134.06
2024-02-06T20:19:59.221Z,101144.66
2024-02-06T20:22:32.525Z,101147.34
2024-02-06T20:25:04.736Z,101138.78
2024-02-06T20:27:35.925Z,101128.88
2024-02-06T20:30:08.097Z,101129.69
2024-02-06T20:32:39.061Z,101132.19
2024-02-06T20:35:10.758Z,101108.06
2024-02-06T20:37:41.759Z,101111.22
2024-02-06T20:40:12.779Z,101103.03
2024-02-06T20:42:43.441Z,101125.53
2024-02-06T20:45:13.903Z,101117.06
2024-02-06T20:47:44.572Z,101120.78
2024-02-06T20:50:15.880Z,101116.78
2024-02-06T20:52:47.317Z,101134.25
2024-02-06T20:55:18.386Z,101141.97
2024-02-06T20:57:49.122Z,101142.97
2024-02-06T21:00:19.934Z,101138.59
2024-02-06T21:02:50.703Z,101124.22
2024-02-06T21:05:21.357Z,101144.66
2024-02-06T21:07:52.147Z,101126.44
2024-02-06T21:10:23.359Z,101142.34
2024-02-06T21:12:54.530Z,101129.59
2024-02-06T21:15:25.660Z,101138.78
2024-02-06T21:17:56.479Z,101126.34
2024-02-06T21:20:26.942Z,101126.53
2024-02-06T21:22:57.793Z,101121.13
2024-02-06T21:25:28.469Z,101117.19
2024-02-06T21:27:59.283Z,101114.75
2024-02-06T21:30:29.965Z,101113.06
2024-02-06T21:33:00.673Z,101097.38
2024-02-06T21:35:31.138Z,101119.88
2024-02-06T21:38:02.206Z,101124.22
2024-02-06T21:40:33.521Z,101124.03
2024-02-06T21:43:04.402Z,101128.59
2024-02-06T21:45:35.299Z,101123.22
2024-02-06T21:48:06.911Z,101124.56
2024-02-06T21:50:37.885Z,101128.28
2024-02-06T21:53:08.912Z,101137.69
2024-02-06T21:55:39.976Z,101120.91
2024-02-06T21:58:11.610Z,101107.53
2024-02-06T22:00:42.513Z,101127.94
2024-02-06T22:03:12.936Z,101124.13
2024-02-06T22:05:44.438Z,101123.38
2024-02-06T22:08:15.240Z,101098.78
2024-02-06T22:10:57.363Z,101125.72
2024-02-06T22:13:28.234Z,101123.28
2024-02-06T22:15:59.717Z,101132.84
2024-02-06T22:18:30.553Z,101132.00
2024-02-06T22:21:01.256Z,101119.88
2024-02-06T22:23:32.025Z,101130.72
2024-02-06T22:26:02.688Z,101128.69
2024-02-06T22:28:33.212Z,101136.75
2024-02-06T22:31:04.091Z,101129.06
2024-02-06T22:33:34.917Z,101130.06
2024-02-06T22:36:06.127Z,101125.31
2024-02-06T22:38:37.909Z,101129.06
2024-02-06T22:41:09.496Z,101132.75
2024-02-06T22:43:40.346Z,101131.94
2024-02-06T22:46:11.170Z,101123.03
2024-02-06T22:48:41.857Z,101124.41
2024-02-06T22:51:12.772Z,101143.34
2024-02-06T22:53:43.294Z,101120.06
2024-02-06T22:56:14.097Z,101145.59
2024-02-06T22:58:44.901Z,101144.56
2024-02-06T23:01:15.816Z,101155.06
2024-02-06T23:03:46.569Z,101143.16
2024-02-06T23:06:17.469Z,101156.16
2024-02-06T23:08:48.916Z,101150.94
2024-02-06T23:11:19.651Z,101152.47
2024-02-06T23:13:50.101Z,101156.53
2024-02-06T23:16:21.527Z,101149.94
2024-02-06T23:18:52.294Z,101160.47
2024-02-06T23:21:23.015Z,101166.59
2024-02-06T23:23:53.870Z,101169.97
2024-02-06T23:26:24.684Z,101144.44
2024-02-06T23:28:56.040Z,101153.22
2024-02-06T23:31:27.215Z,101175.38
2024-02-06T23:33:57.822Z,101181.00
2024-02-06T23:36:28.398Z,101197.06
2024-02-06T23:39:10.429Z,101182.66
2024-02-06T23:41:46.389Z,101192.09
2024-02-06T23:44:17.391Z,101213.38
2024-02-06T23:46:48.107Z,101206.28
2024-02-06T23:49:19.076Z,101195.47
2024-02-06T23:51:49.886Z,101205.97
2024-02-06T23:54:20.512Z,101234.72
2024-02-06T23:56:51.489Z,101243.66
2024-02-06T23:59:22.074Z,101248.91
